sensor_id;sensor_type;location;lat;lon;timestamp;P1;durP1;ratioP1;P2;durP2;ratioP2
26562;SDS011;14217;50.986;5.826;2023-11-18T00:01:14;11.75;;;6.75;;
26562;SDS011;14217;50.986;5.826;2023-11-18T00:06:16;9.20;;;5.85;;
26562;SDS011;14217;50.986;5.826;2023-11-18T00:11:18;9.25;;;6.15;;
26562;SDS011;14217;50.986;5.826;2023-11-18T00:16:20;8.20;;;5.65;;
26562;SDS011;14217;50.986;5.826;2023-11-18T00:21:24;8.25;;;5.57;;
26562;SDS011;14217;50.986;5.826;2023-11-18T00:26:26;8.00;;;5.57;;
26562;SDS011;14217;50.986;5.826;2023-11-18T00:31:28;11.93;;;5.40;;
26562;SDS011;14217;50.986;5.826;2023-11-18T00:36:31;9.82;;;5.75;;
26562;SDS011;14217;50.986;5.826;2023-11-18T00:41:33;7.15;;;5.88;;
26562;SDS011;14217;50.986;5.826;2023-11-18T00:46:35;6.72;;;4.57;;
26562;SDS011;14217;50.986;5.826;2023-11-18T00:51:38;6.78;;;5.55;;
26562;SDS011;14217;50.986;5.826;2023-11-18T00:56:40;10.90;;;4.97;;
26562;SDS011;14217;50.986;5.826;2023-11-18T01:01:42;6.88;;;5.03;;
26562;SDS011;14217;50.986;5.826;2023-11-18T01:06:45;5.35;;;4.07;;
26562;SDS011;14217;50.986;5.826;2023-11-18T01:11:47;5.25;;;3.88;;
26562;SDS011;14217;50.986;5.826;2023-11-18T01:17:09;5.50;;;3.58;;
26562;SDS011;14217;50.986;5.826;2023-11-18T01:22:11;5.75;;;3.33;;
26562;SDS011;14217;50.986;5.826;2023-11-18T01:27:13;5.35;;;3.72;;
26562;SDS011;14217;50.986;5.826;2023-11-18T01:32:16;9.13;;;3.53;;
26562;SDS011;14217;50.986;5.826;2023-11-18T01:37:18;5.60;;;3.60;;
26562;SDS011;14217;50.986;5.826;2023-11-18T01:42:23;5.70;;;3.85;;
26562;SDS011;14217;50.986;5.826;2023-11-18T01:47:26;3.53;;;2.75;;
26562;SDS011;14217;50.986;5.826;2023-11-18T01:52:28;4.78;;;2.90;;
26562;SDS011;14217;50.986;5.826;2023-11-18T01:57:32;4.68;;;3.22;;
26562;SDS011;14217;50.986;5.826;2023-11-18T02:02:35;3.65;;;2.85;;
26562;SDS011;14217;50.986;5.826;2023-11-18T02:07:39;4.03;;;2.60;;
26562;SDS011;14217;50.986;5.826;2023-11-18T02:18:08;4.50;;;2.63;;
26562;SDS011;14217;50.986;5.826;2023-11-18T02:23:11;3.67;;;2.88;;
26562;SDS011;14217;50.986;5.826;2023-11-18T02:28:13;4.03;;;3.00;;
26562;SDS011;14217;50.986;5.826;2023-11-18T02:33:23;3.58;;;2.58;;
26562;SDS011;14217;50.986;5.826;2023-11-18T02:38:34;3.35;;;2.60;;
26562;SDS011;14217;50.986;5.826;2023-11-18T02:43:41;4.68;;;2.92;;
26562;SDS011;14217;50.986;5.826;2023-11-18T02:48:46;3.55;;;2.67;;
26562;SDS011;14217;50.986;5.826;2023-11-18T02:53:48;2.20;;;1.85;;
26562;SDS011;14217;50.986;5.826;2023-11-18T02:58:50;2.95;;;2.03;;
26562;SDS011;14217;50.986;5.826;2023-11-18T03:03:53;3.83;;;2.55;;
26562;SDS011;14217;50.986;5.826;2023-11-18T03:08:56;3.05;;;2.13;;
26562;SDS011;14217;50.986;5.826;2023-11-18T03:13:58;4.25;;;1.70;;
26562;SDS011;14217;50.986;5.826;2023-11-18T03:19:00;3.83;;;1.70;;
26562;SDS011;14217;50.986;5.826;2023-11-18T03:24:03;4.40;;;2.10;;
26562;SDS011;14217;50.986;5.826;2023-11-18T03:29:05;2.58;;;1.35;;
26562;SDS011;14217;50.986;5.826;2023-11-18T03:34:07;2.33;;;1.42;;
26562;SDS011;14217;50.986;5.826;2023-11-18T03:39:09;1.80;;;1.42;;
26562;SDS011;14217;50.986;5.826;2023-11-18T03:44:12;2.15;;;1.75;;
26562;SDS011;14217;50.986;5.826;2023-11-18T03:49:15;2.92;;;1.70;;
26562;SDS011;14217;50.986;5.826;2023-11-18T03:54:17;2.17;;;1.30;;
26562;SDS011;14217;50.986;5.826;2023-11-18T03:59:19;2.25;;;1.73;;
26562;SDS011;14217;50.986;5.826;2023-11-18T04:04:21;2.25;;;1.73;;
26562;SDS011;14217;50.986;5.826;2023-11-18T04:09:24;2.00;;;1.30;;
26562;SDS011;14217;50.986;5.826;2023-11-18T04:14:27;1.48;;;1.27;;
26562;SDS011;14217;50.986;5.826;2023-11-18T04:19:30;2.80;;;1.20;;
26562;SDS011;14217;50.986;5.826;2023-11-18T04:24:32;1.90;;;1.30;;
26562;SDS011;14217;50.986;5.826;2023-11-18T04:29:35;2.97;;;1.17;;
26562;SDS011;14217;50.986;5.826;2023-11-18T04:34:39;1.70;;;1.17;;
26562;SDS011;14217;50.986;5.826;2023-11-18T04:39:41;1.58;;;1.20;;
26562;SDS011;14217;50.986;5.826;2023-11-18T04:44:43;2.30;;;1.38;;
26562;SDS011;14217;50.986;5.826;2023-11-18T04:49:45;3.15;;;1.42;;
26562;SDS011;14217;50.986;5.826;2023-11-18T04:54:47;2.67;;;1.35;;
26562;SDS011;14217;50.986;5.826;2023-11-18T04:59:49;1.40;;;1.00;;
26562;SDS011;14217;50.986;5.826;2023-11-18T05:04:51;1.92;;;1.23;;
26562;SDS011;14217;50.986;5.826;2023-11-18T05:09:53;2.58;;;1.30;;
26562;SDS011;14217;50.986;5.826;2023-11-18T05:14:56;1.65;;;1.00;;
26562;SDS011;14217;50.986;5.826;2023-11-18T05:19:58;1.20;;;1.00;;
26562;SDS011;14217;50.986;5.826;2023-11-18T05:25:02;2.25;;;1.20;;
26562;SDS011;14217;50.986;5.826;2023-11-18T05:30:09;0.95;;;0.93;;
26562;SDS011;14217;50.986;5.826;2023-11-18T05:35:12;1.95;;;1.05;;
26562;SDS011;14217;50.986;5.826;2023-11-18T05:40:14;1.60;;;1.02;;
26562;SDS011;14217;50.986;5.826;2023-11-18T05:45:17;1.10;;;1.00;;
26562;SDS011;14217;50.986;5.826;2023-11-18T05:50:29;2.40;;;1.10;;
26562;SDS011;14217;50.986;5.826;2023-11-18T05:55:32;2.22;;;1.38;;
26562;SDS011;14217;50.986;5.826;2023-11-18T06:00:35;1.67;;;1.13;;
26562;SDS011;14217;50.986;5.826;2023-11-18T06:05:42;1.08;;;0.77;;
26562;SDS011;14217;50.986;5.826;2023-11-18T06:10:45;1.00;;;0.60;;
26562;SDS011;14217;50.986;5.826;2023-11-18T06:15:47;0.90;;;0.80;;
26562;SDS011;14217;50.986;5.826;2023-11-18T06:20:49;1.27;;;0.73;;
26562;SDS011;14217;50.986;5.826;2023-11-18T06:25:51;0.82;;;0.82;;
26562;SDS011;14217;50.986;5.826;2023-11-18T06:30:53;1.33;;;0.80;;
26562;SDS011;14217;50.986;5.826;2023-11-18T06:35:55;1.13;;;0.77;;
26562;SDS011;14217;50.986;5.826;2023-11-18T06:40:58;1.95;;;0.93;;
26562;SDS011;14217;50.986;5.826;2023-11-18T06:46:07;0.50;;;0.40;;
26562;SDS011;14217;50.986;5.826;2023-11-18T06:51:14;2.25;;;0.95;;
26562;SDS011;14217;50.986;5.826;2023-11-18T06:56:17;1.15;;;0.60;;
26562;SDS011;14217;50.986;5.826;2023-11-18T07:01:20;0.90;;;0.68;;
26562;SDS011;14217;50.986;5.826;2023-11-18T07:06:22;0.88;;;0.70;;
26562;SDS011;14217;50.986;5.826;2023-11-18T07:11:25;0.82;;;0.63;;
26562;SDS011;14217;50.986;5.826;2023-11-18T07:16:27;1.20;;;0.70;;
26562;SDS011;14217;50.986;5.826;2023-11-18T07:21:29;1.05;;;0.80;;
26562;SDS011;14217;50.986;5.826;2023-11-18T07:26:31;0.75;;;0.63;;
26562;SDS011;14217;50.986;5.826;2023-11-18T07:31:34;1.05;;;0.40;;
26562;SDS011;14217;50.986;5.826;2023-11-18T07:36:37;0.95;;;0.52;;
26562;SDS011;14217;50.986;5.826;2023-11-18T07:41:39;1.20;;;0.80;;
26562;SDS011;14217;50.986;5.826;2023-11-18T07:46:42;1.90;;;0.55;;
26562;SDS011;14217;50.986;5.826;2023-11-18T07:51:44;1.23;;;0.70;;
26562;SDS011;14217;50.986;5.826;2023-11-18T07:56:46;1.08;;;0.63;;
26562;SDS011;14217;50.986;5.826;2023-11-18T08:01:49;0.70;;;0.70;;
26562;SDS011;14217;50.986;5.826;2023-11-18T08:06:52;0.93;;;0.80;;
26562;SDS011;14217;50.986;5.826;2023-11-18T08:11:55;0.70;;;0.60;;
26562;SDS011;14217;50.986;5.826;2023-11-18T08:16:57;0.88;;;0.68;;
26562;SDS011;14217;50.986;5.826;2023-11-18T08:22:01;0.73;;;0.60;;
26562;SDS011;14217;50.986;5.826;2023-11-18T08:27:05;0.82;;;0.55;;
26562;SDS011;14217;50.986;5.826;2023-11-18T08:32:07;7.88;;;0.60;;
26562;SDS011;14217;50.986;5.826;2023-11-18T08:37:11;1.00;;;0.43;;
26562;SDS011;14217;50.986;5.826;2023-11-18T08:42:15;2.38;;;0.93;;
26562;SDS011;14217;50.986;5.826;2023-11-18T08:47:18;1.67;;;0.70;;
26562;SDS011;14217;50.986;5.826;2023-11-18T08:52:21;2.70;;;0.73;;
26562;SDS011;14217;50.986;5.826;2023-11-18T08:57:23;4.95;;;0.85;;
26562;SDS011;14217;50.986;5.826;2023-11-18T09:02:29;4.68;;;0.98;;
26562;SDS011;14217;50.986;5.826;2023-11-18T09:07:47;4.32;;;0.90;;
26562;SDS011;14217;50.986;5.826;2023-11-18T09:12:52;5.28;;;0.70;;
26562;SDS011;14217;50.986;5.826;2023-11-18T09:17:57;5.50;;;1.10;;
26562;SDS011;14217;50.986;5.826;2023-11-18T09:22:59;7.90;;;0.82;;
26562;SDS011;14217;50.986;5.826;2023-11-18T09:28:01;2.25;;;0.80;;
26562;SDS011;14217;50.986;5.826;2023-11-18T09:33:04;1.10;;;0.70;;
26562;SDS011;14217;50.986;5.826;2023-11-18T09:38:07;5.13;;;1.00;;
26562;SDS011;14217;50.986;5.826;2023-11-18T09:43:10;3.22;;;1.00;;
26562;SDS011;14217;50.986;5.826;2023-11-18T09:48:17;4.30;;;0.50;;
26562;SDS011;14217;50.986;5.826;2023-11-18T09:53:26;3.15;;;0.57;;
26562;SDS011;14217;50.986;5.826;2023-11-18T09:58:37;2.10;;;0.98;;
26562;SDS011;14217;50.986;5.826;2023-11-18T10:03:45;4.07;;;0.95;;
26562;SDS011;14217;50.986;5.826;2023-11-18T10:08:48;5.80;;;0.68;;
26562;SDS011;14217;50.986;5.826;2023-11-18T10:13:54;0.55;;;0.50;;
26562;SDS011;14217;50.986;5.826;2023-11-18T10:18:57;1.40;;;0.47;;
26562;SDS011;14217;50.986;5.826;2023-11-18T10:24:02;0.82;;;0.60;;
26562;SDS011;14217;50.986;5.826;2023-11-18T10:29:06;2.63;;;0.75;;
26562;SDS011;14217;50.986;5.826;2023-11-18T10:34:14;2.63;;;0.70;;
26562;SDS011;14217;50.986;5.826;2023-11-18T10:39:20;0.70;;;0.40;;
26562;SDS011;14217;50.986;5.826;2023-11-18T10:44:25;1.27;;;0.55;;
26562;SDS011;14217;50.986;5.826;2023-11-18T10:49:28;1.73;;;0.57;;
26562;SDS011;14217;50.986;5.826;2023-11-18T10:54:30;1.55;;;0.93;;
26562;SDS011;14217;50.986;5.826;2023-11-18T10:59:33;1.45;;;0.60;;
26562;SDS011;14217;50.986;5.826;2023-11-18T11:04:42;1.67;;;1.58;;
26562;SDS011;14217;50.986;5.826;2023-11-18T11:09:45;1.58;;;0.60;;
26562;SDS011;14217;50.986;5.826;2023-11-18T11:14:53;8.23;;;0.50;;
26562;SDS011;14217;50.986;5.826;2023-11-18T11:20:08;2.17;;;0.93;;
26562;SDS011;14217;50.986;5.826;2023-11-18T11:25:35;2.08;;;0.57;;
26562;SDS011;14217;50.986;5.826;2023-11-18T11:30:46;3.50;;;0.50;;
26562;SDS011;14217;50.986;5.826;2023-11-18T11:35:53;1.38;;;0.55;;
26562;SDS011;14217;50.986;5.826;2023-11-18T11:40:59;2.97;;;0.82;;
26562;SDS011;14217;50.986;5.826;2023-11-18T11:46:03;8.38;;;0.70;;
26562;SDS011;14217;50.986;5.826;2023-11-18T11:56:37;2.17;;;1.10;;
26562;SDS011;14217;50.986;5.826;2023-11-18T12:02:01;2.53;;;0.60;;
26562;SDS011;14217;50.986;5.826;2023-11-18T12:07:08;8.50;;;0.70;;
26562;SDS011;14217;50.986;5.826;2023-11-18T12:12:21;1.95;;;0.50;;
26562;SDS011;14217;50.986;5.826;2023-11-18T12:17:23;1.48;;;0.50;;
26562;SDS011;14217;50.986;5.826;2023-11-18T12:22:30;5.43;;;0.63;;
26562;SDS011;14217;50.986;5.826;2023-11-18T12:28:07;8.27;;;0.68;;
26562;SDS011;14217;50.986;5.826;2023-11-18T12:33:10;2.28;;;0.82;;
26562;SDS011;14217;50.986;5.826;2023-11-18T12:48:50;5.68;;;0.52;;
26562;SDS011;14217;50.986;5.826;2023-11-18T12:53:58;4.45;;;0.80;;
26562;SDS011;14217;50.986;5.826;2023-11-18T12:59:00;1.90;;;0.68;;
26562;SDS011;14217;50.986;5.826;2023-11-18T13:04:02;4.85;;;0.75;;
26562;SDS011;14217;50.986;5.826;2023-11-18T13:09:05;16.42;;;0.98;;
26562;SDS011;14217;50.986;5.826;2023-11-18T13:14:11;2.83;;;0.65;;
26562;SDS011;14217;50.986;5.826;2023-11-18T13:19:22;6.22;;;0.70;;
26562;SDS011;14217;50.986;5.826;2023-11-18T13:24:26;2.05;;;0.50;;
26562;SDS011;14217;50.986;5.826;2023-11-18T13:29:29;1.58;;;0.80;;
26562;SDS011;14217;50.986;5.826;2023-11-18T13:34:31;3.47;;;0.93;;
26562;SDS011;14217;50.986;5.826;2023-11-18T13:39:44;1.48;;;0.40;;
26562;SDS011;14217;50.986;5.826;2023-11-18T13:44:51;0.57;;;0.50;;
26562;SDS011;14217;50.986;5.826;2023-11-18T13:49:54;1.27;;;0.35;;
26562;SDS011;14217;50.986;5.826;2023-11-18T13:54:56;2.85;;;0.60;;
26562;SDS011;14217;50.986;5.826;2023-11-18T14:00:01;1.33;;;0.82;;
26562;SDS011;14217;50.986;5.826;2023-11-18T14:05:03;0.77;;;0.20;;
26562;SDS011;14217;50.986;5.826;2023-11-18T14:10:07;0.70;;;0.15;;
26562;SDS011;14217;50.986;5.826;2023-11-18T14:15:14;2.75;;;0.50;;
26562;SDS011;14217;50.986;5.826;2023-11-18T14:20:17;1.42;;;0.50;;
26562;SDS011;14217;50.986;5.826;2023-11-18T14:25:21;0.32;;;0.30;;
26562;SDS011;14217;50.986;5.826;2023-11-18T14:30:25;0.40;;;0.22;;
26562;SDS011;14217;50.986;5.826;2023-11-18T14:35:27;0.85;;;0.32;;
26562;SDS011;14217;50.986;5.826;2023-11-18T14:40:30;3.72;;;0.20;;
26562;SDS011;14217;50.986;5.826;2023-11-18T14:45:34;5.10;;;0.40;;
26562;SDS011;14217;50.986;5.826;2023-11-18T14:50:36;1.98;;;0.45;;
26562;SDS011;14217;50.986;5.826;2023-11-18T14:55:39;0.70;;;0.10;;
26562;SDS011;14217;50.986;5.826;2023-11-18T15:00:42;1.05;;;0.30;;
26562;SDS011;14217;50.986;5.826;2023-11-18T15:05:44;0.20;;;0.10;;
26562;SDS011;14217;50.986;5.826;2023-11-18T15:10:46;0.17;;;0.17;;
26562;SDS011;14217;50.986;5.826;2023-11-18T15:15:49;0.95;;;0.43;;
26562;SDS011;14217;50.986;5.826;2023-11-18T15:20:51;0.52;;;0.22;;
26562;SDS011;14217;50.986;5.826;2023-11-18T15:25:53;0.13;;;0.13;;
26562;SDS011;14217;50.986;5.826;2023-11-18T15:30:56;0.30;;;0.15;;
26562;SDS011;14217;50.986;5.826;2023-11-18T15:35:58;1.55;;;0.50;;
26562;SDS011;14217;50.986;5.826;2023-11-18T15:41:00;2.00;;;0.20;;
26562;SDS011;14217;50.986;5.826;2023-11-18T15:46:02;0.20;;;0.10;;
26562;SDS011;14217;50.986;5.826;2023-11-18T15:51:08;0.20;;;0.00;;
26562;SDS011;14217;50.986;5.826;2023-11-18T15:56:10;1.50;;;0.20;;
26562;SDS011;14217;50.986;5.826;2023-11-18T16:01:12;0.05;;;0.05;;
26562;SDS011;14217;50.986;5.826;2023-11-18T16:06:14;0.00;;;0.00;;
26562;SDS011;14217;50.986;5.826;2023-11-18T16:11:17;0.73;;;0.17;;
26562;SDS011;14217;50.986;5.826;2023-11-18T16:16:19;0.35;;;0.20;;
26562;SDS011;14217;50.986;5.826;2023-11-18T16:21:26;0.20;;;0.15;;
26562;SDS011;14217;50.986;5.826;2023-11-18T16:26:29;0.52;;;0.25;;
26562;SDS011;14217;50.986;5.826;2023-11-18T16:31:31;0.35;;;0.25;;
26562;SDS011;14217;50.986;5.826;2023-11-18T16:36:33;0.43;;;0.25;;
26562;SDS011;14217;50.986;5.826;2023-11-18T16:41:35;0.10;;;0.10;;
26562;SDS011;14217;50.986;5.826;2023-11-18T16:46:46;1.55;;;0.00;;
26562;SDS011;14217;50.986;5.826;2023-11-18T16:51:48;3.20;;;0.10;;
26562;SDS011;14217;50.986;5.826;2023-11-18T16:56:56;0.80;;;0.28;;
26562;SDS011;14217;50.986;5.826;2023-11-18T17:01:58;0.43;;;0.22;;
26562;SDS011;14217;50.986;5.826;2023-11-18T17:07:00;0.20;;;0.13;;
26562;SDS011;14217;50.986;5.826;2023-11-18T17:12:02;0.00;;;0.00;;
26562;SDS011;14217;50.986;5.826;2023-11-18T17:17:04;0.10;;;0.10;;
26562;SDS011;14217;50.986;5.826;2023-11-18T17:22:09;0.00;;;0.00;;
26562;SDS011;14217;50.986;5.826;2023-11-18T17:27:12;0.82;;;0.20;;
26562;SDS011;14217;50.986;5.826;2023-11-18T17:32:14;0.05;;;0.03;;
26562;SDS011;14217;50.986;5.826;2023-11-18T17:37:16;0.10;;;0.10;;
26562;SDS011;14217;50.986;5.826;2023-11-18T17:42:18;0.10;;;0.10;;
26562;SDS011;14217;50.986;5.826;2023-11-18T17:47:20;0.22;;;0.13;;
26562;SDS011;14217;50.986;5.826;2023-11-18T17:52:23;0.20;;;0.08;;
26562;SDS011;14217;50.986;5.826;2023-11-18T17:57:25;0.10;;;0.10;;
26562;SDS011;14217;50.986;5.826;2023-11-18T18:02:27;0.75;;;0.47;;
26562;SDS011;14217;50.986;5.826;2023-11-18T18:07:30;0.40;;;0.10;;
26562;SDS011;14217;50.986;5.826;2023-11-18T18:12:32;0.25;;;0.20;;
26562;SDS011;14217;50.986;5.826;2023-11-18T18:17:34;1.75;;;0.20;;
26562;SDS011;14217;50.986;5.826;2023-11-18T18:22:38;0.38;;;0.20;;
26562;SDS011;14217;50.986;5.826;2023-11-18T18:27:41;0.10;;;0.10;;
26562;SDS011;14217;50.986;5.826;2023-11-18T18:32:44;0.98;;;0.22;;
26562;SDS011;14217;50.986;5.826;2023-11-18T18:37:48;0.00;;;0.00;;
26562;SDS011;14217;50.986;5.826;2023-11-18T18:42:50;1.17;;;0.10;;
26562;SDS011;14217;50.986;5.826;2023-11-18T18:47:52;0.22;;;0.10;;
26562;SDS011;14217;50.986;5.826;2023-11-18T18:52:56;0.38;;;0.10;;
26562;SDS011;14217;50.986;5.826;2023-11-18T18:57:58;0.17;;;0.10;;
26562;SDS011;14217;50.986;5.826;2023-11-18T19:03:01;0.10;;;0.10;;
26562;SDS011;14217;50.986;5.826;2023-11-18T19:08:03;0.55;;;0.55;;
26562;SDS011;14217;50.986;5.826;2023-11-18T19:13:07;0.38;;;0.17;;
26562;SDS011;14217;50.986;5.826;2023-11-18T19:18:09;0.28;;;0.25;;
26562;SDS011;14217;50.986;5.826;2023-11-18T19:23:13;0.25;;;0.10;;
26562;SDS011;14217;50.986;5.826;2023-11-18T19:28:16;0.17;;;0.10;;
26562;SDS011;14217;50.986;5.826;2023-11-18T19:33:18;0.40;;;0.30;;
26562;SDS011;14217;50.986;5.826;2023-11-18T19:38:21;0.63;;;0.20;;
26562;SDS011;14217;50.986;5.826;2023-11-18T19:43:24;0.13;;;0.13;;
26562;SDS011;14217;50.986;5.826;2023-11-18T19:48:27;0.08;;;0.08;;
26562;SDS011;14217;50.986;5.826;2023-11-18T19:53:32;0.00;;;0.00;;
26562;SDS011;14217;50.986;5.826;2023-11-18T19:58:34;0.17;;;0.17;;
26562;SDS011;14217;50.986;5.826;2023-11-18T20:03:36;0.45;;;0.10;;
26562;SDS011;14217;50.986;5.826;2023-11-18T20:08:38;0.20;;;0.20;;
26562;SDS011;14217;50.986;5.826;2023-11-18T20:13:41;0.10;;;0.10;;
26562;SDS011;14217;50.986;5.826;2023-11-18T20:18:43;0.10;;;0.10;;
26562;SDS011;14217;50.986;5.826;2023-11-18T20:23:45;0.10;;;0.10;;
26562;SDS011;14217;50.986;5.826;2023-11-18T20:28:47;0.15;;;0.10;;
26562;SDS011;14217;50.986;5.826;2023-11-18T20:33:49;0.20;;;0.20;;
26562;SDS011;14217;50.986;5.826;2023-11-18T20:38:51;0.52;;;0.20;;
26562;SDS011;14217;50.986;5.826;2023-11-18T20:43:54;0.20;;;0.20;;
26562;SDS011;14217;50.986;5.826;2023-11-18T20:48:56;0.50;;;0.25;;
26562;SDS011;14217;50.986;5.826;2023-11-18T20:53:58;0.10;;;0.10;;
26562;SDS011;14217;50.986;5.826;2023-11-18T20:59:04;0.10;;;0.10;;
26562;SDS011;14217;50.986;5.826;2023-11-18T21:04:06;0.20;;;0.20;;
26562;SDS011;14217;50.986;5.826;2023-11-18T21:09:08;0.73;;;0.10;;
26562;SDS011;14217;50.986;5.826;2023-11-18T21:14:10;0.00;;;0.00;;
26562;SDS011;14217;50.986;5.826;2023-11-18T21:19:13;0.38;;;0.10;;
26562;SDS011;14217;50.986;5.826;2023-11-18T21:24:15;0.10;;;0.10;;
26562;SDS011;14217;50.986;5.826;2023-11-18T21:29:19;0.10;;;0.10;;
26562;SDS011;14217;50.986;5.826;2023-11-18T21:34:21;0.98;;;0.20;;
26562;SDS011;14217;50.986;5.826;2023-11-18T21:39:23;0.10;;;0.10;;
26562;SDS011;14217;50.986;5.826;2023-11-18T21:44:25;0.15;;;0.10;;
26562;SDS011;14217;50.986;5.826;2023-11-18T21:49:27;0.15;;;0.15;;
26562;SDS011;14217;50.986;5.826;2023-11-18T21:54:30;0.40;;;0.20;;
26562;SDS011;14217;50.986;5.826;2023-11-18T21:59:33;0.15;;;0.10;;
26562;SDS011;14217;50.986;5.826;2023-11-18T22:04:35;0.20;;;0.20;;
26562;SDS011;14217;50.986;5.826;2023-11-18T22:09:38;0.45;;;0.08;;
26562;SDS011;14217;50.986;5.826;2023-11-18T22:14:40;0.30;;;0.17;;
26562;SDS011;14217;50.986;5.826;2023-11-18T22:19:43;0.50;;;0.30;;
26562;SDS011;14217;50.986;5.826;2023-11-18T22:24:47;0.77;;;0.28;;
26562;SDS011;14217;50.986;5.826;2023-11-18T22:29:49;0.10;;;0.10;;
26562;SDS011;14217;50.986;5.826;2023-11-18T22:34:53;1.00;;;0.30;;
26562;SDS011;14217;50.986;5.826;2023-11-18T22:39:57;0.73;;;0.28;;
26562;SDS011;14217;50.986;5.826;2023-11-18T22:45:00;0.70;;;0.30;;
26562;SDS011;14217;50.986;5.826;2023-11-18T22:50:02;0.40;;;0.10;;
26562;SDS011;14217;50.986;5.826;2023-11-18T22:55:06;0.45;;;0.20;;
26562;SDS011;14217;50.986;5.826;2023-11-18T23:00:13;0.10;;;0.10;;
26562;SDS011;14217;50.986;5.826;2023-11-18T23:05:36;0.35;;;0.10;;
26562;SDS011;14217;50.986;5.826;2023-11-18T23:10:42;0.10;;;0.10;;
26562;SDS011;14217;50.986;5.826;2023-11-18T23:15:44;0.35;;;0.20;;
26562;SDS011;14217;50.986;5.826;2023-11-18T23:20:47;0.20;;;0.20;;
26562;SDS011;14217;50.986;5.826;2023-11-18T23:25:49;0.25;;;0.10;;
26562;SDS011;14217;50.986;5.826;2023-11-18T23:30:51;0.10;;;0.10;;
26562;SDS011;14217;50.986;5.826;2023-11-18T23:35:54;3.47;;;0.10;;
26562;SDS011;14217;50.986;5.826;2023-11-18T23:40:56;3.30;;;0.10;;
26562;SDS011;14217;50.986;5.826;2023-11-18T23:45:58;0.85;;;0.10;;
26562;SDS011;14217;50.986;5.826;2023-11-18T23:51:00;0.00;;;0.00;;
26562;SDS011;14217;50.986;5.826;2023-11-18T23:56:02;0.08;;;0.08;;
